createdAt,value
2023-04-18T00:00:49.354Z,91.56
2023-04-18T00:03:18.333Z,91.46
2023-04-18T00:05:48.303Z,91.37
2023-04-18T00:08:17.444Z,91.13
2023-04-18T00:10:46.314Z,91.40
2023-04-18T00:13:19.406Z,91.01
2023-04-18T00:15:48.230Z,91.08
2023-04-18T00:18:17.313Z,91.14
2023-04-18T00:20:47.435Z,90.80
2023-04-18T00:23:16.468Z,90.80
2023-04-18T00:25:45.284Z,90.78
2023-04-18T00:28:15.588Z,91.30
2023-04-18T00:30:44.350Z,91.34
2023-04-18T00:33:13.022Z,91.34
2023-04-18T00:35:41.954Z,91.07
2023-04-18T00:38:10.680Z,91.13
2023-04-18T00:40:39.619Z,91.03
2023-04-18T00:43:09.751Z,91.22
2023-04-18T00:45:40.001Z,91.39
2023-04-18T00:48:09.129Z,91.24
2023-04-18T00:50:40.618Z,91.47
2023-04-18T00:53:12.485Z,91.82
2023-04-18T00:55:41.596Z,91.43
2023-04-18T00:58:10.598Z,92.10
2023-04-18T01:00:40.909Z,91.95
2023-04-18T01:03:10.870Z,91.78
2023-04-18T01:05:40.303Z,91.68
2023-04-18T01:08:09.072Z,91.67
2023-04-18T01:10:38.460Z,91.83
2023-04-18T01:13:15.175Z,92.47
2023-04-18T01:15:48.057Z,92.21
2023-04-18T01:18:18.561Z,92.65
2023-04-18T01:20:50.113Z,92.37
2023-04-18T01:23:21.905Z,92.03
2023-04-18T01:25:52.107Z,92.30
2023-04-18T01:28:22.843Z,91.69
2023-04-18T01:30:52.788Z,91.95
2023-04-18T01:33:21.538Z,91.71
2023-04-18T01:35:50.342Z,91.67
2023-04-18T01:38:19.131Z,91.64
2023-04-18T01:40:48.210Z,91.44
2023-04-18T01:43:18.501Z,91.27
2023-04-18T01:45:47.191Z,90.88
2023-04-18T01:48:16.003Z,91.10
2023-04-18T01:50:44.974Z,90.92
2023-04-18T01:53:13.646Z,91.12
2023-04-18T01:55:45.755Z,91.33
2023-04-18T01:58:15.757Z,90.96
2023-04-18T02:00:45.900Z,91.70
2023-04-18T02:03:14.842Z,91.45
2023-04-18T02:05:43.932Z,91.46
2023-04-18T02:08:12.725Z,91.02
2023-04-18T02:10:42.706Z,90.90
2023-04-18T02:13:11.388Z,90.42
2023-04-18T02:15:40.184Z,90.60
2023-04-18T02:18:11.693Z,90.12
2023-04-18T02:20:41.922Z,90.70
2023-04-18T02:23:10.760Z,90.77
2023-04-18T02:25:39.505Z,90.33
2023-04-18T02:28:08.224Z,90.42
2023-04-18T02:30:37.128Z,90.47
2023-04-18T02:33:05.995Z,90.65
2023-04-18T02:35:36.611Z,89.85
2023-04-18T02:38:05.387Z,89.56
2023-04-18T02:40:34.117Z,89.21
2023-04-18T02:43:02.835Z,89.69
2023-04-18T02:45:32.793Z,89.77
2023-04-18T02:48:03.369Z,89.37
2023-04-18T02:50:35.547Z,89.29
2023-04-18T02:53:04.530Z,88.61
2023-04-18T02:55:46.074Z,88.45
2023-04-18T02:58:14.859Z,88.30
2023-04-18T03:01:09.291Z,87.62
2023-04-18T03:03:57.527Z,87.92
2023-04-18T03:06:35.972Z,87.27
2023-04-18T03:09:05.460Z,87.34
2023-04-18T03:11:37.372Z,87.95
2023-04-18T03:14:07.513Z,87.92
2023-04-18T03:16:47.828Z,87.43
2023-04-18T03:19:20.881Z,87.20
2023-04-18T03:21:51.863Z,87.29
2023-04-18T03:24:20.644Z,87.21
2023-04-18T03:26:52.663Z,87.11
2023-04-18T03:29:25.315Z,86.81
2023-04-18T03:31:54.007Z,87.72
2023-04-18T03:34:22.811Z,87.92
2023-04-18T03:36:53.658Z,88.31
2023-04-18T03:39:23.301Z,88.12
2023-04-18T03:41:54.669Z,88.76
2023-04-18T03:44:23.660Z,88.66
2023-04-18T03:46:52.629Z,88.73
2023-04-18T03:49:21.409Z,88.47
2023-04-18T03:51:50.510Z,88.80
2023-04-18T03:54:21.855Z,88.41
2023-04-18T03:56:51.671Z,87.95
2023-04-18T03:59:24.650Z,87.99
2023-04-18T04:01:53.665Z,88.39
2023-04-18T04:04:22.815Z,87.52
2023-04-18T04:06:53.762Z,87.52
2023-04-18T04:09:24.288Z,88.37
2023-04-18T04:11:53.481Z,88.43
2023-04-18T04:14:23.015Z,87.68
2023-04-18T04:16:52.418Z,88.30
2023-04-18T04:19:22.078Z,88.01
2023-04-18T04:21:58.942Z,87.66
2023-04-18T04:24:30.861Z,87.46
2023-04-18T04:27:04.312Z,87.43
2023-04-18T04:29:39.848Z,88.58
2023-04-18T04:32:09.469Z,87.67
2023-04-18T04:34:42.186Z,87.13
2023-04-18T04:37:15.664Z,87.10
2023-04-18T04:40:00.899Z,87.60
2023-04-18T04:42:43.813Z,87.39
2023-04-18T04:45:20.121Z,87.63
2023-04-18T04:47:49.964Z,88.22
2023-04-18T04:50:21.565Z,87.46
2023-04-18T04:52:50.675Z,87.98
2023-04-18T04:55:21.383Z,87.89
2023-04-18T04:57:52.147Z,88.02
2023-04-18T05:00:38.084Z,88.44
2023-04-18T05:03:07.208Z,88.09
2023-04-18T05:05:36.260Z,88.60
2023-04-18T05:08:05.311Z,88.00
2023-04-18T05:10:37.171Z,88.83
2023-04-18T05:13:06.463Z,87.93
2023-04-18T05:15:36.042Z,87.34
2023-04-18T05:18:05.162Z,87.23
2023-04-18T05:20:34.119Z,87.62
2023-04-18T05:23:03.374Z,87.52
2023-04-18T05:25:34.161Z,86.73
2023-04-18T05:28:04.588Z,87.16
2023-04-18T05:30:33.353Z,87.50
2023-04-18T05:33:02.055Z,88.30
2023-04-18T05:35:30.817Z,87.65
2023-04-18T05:38:00.115Z,87.76
2023-04-18T05:40:30.072Z,87.06
2023-04-18T05:43:00.430Z,87.35
2023-04-18T05:45:29.114Z,87.31
2023-04-18T05:47:57.919Z,87.02
2023-04-18T05:50:26.746Z,86.56
2023-04-18T05:52:55.407Z,86.14
2023-04-18T05:55:24.120Z,86.23
2023-04-18T05:57:52.858Z,85.92
2023-04-18T06:00:23.699Z,85.97
2023-04-18T06:02:52.518Z,85.50
2023-04-18T06:05:21.656Z,85.48
2023-04-18T06:07:50.735Z,85.66
2023-04-18T06:10:19.382Z,85.68
2023-04-18T06:12:47.976Z,86.86
2023-04-18T06:15:16.651Z,86.38
2023-04-18T06:17:46.708Z,86.19
2023-04-18T06:20:15.573Z,85.19
2023-04-18T06:22:44.277Z,85.50
2023-04-18T06:25:12.953Z,85.34
2023-04-18T06:27:41.701Z,85.76
2023-04-18T06:30:12.073Z,85.19
2023-04-18T06:32:40.867Z,85.79
2023-04-18T06:35:11.492Z,85.78
2023-04-18T06:37:44.075Z,86.87
2023-04-18T06:40:13.748Z,87.43
2023-04-18T06:42:44.791Z,86.72
2023-04-18T06:45:14.267Z,87.19
2023-04-18T06:47:43.068Z,86.83
2023-04-18T06:50:13.266Z,86.11
2023-04-18T06:52:44.514Z,86.25
2023-04-18T06:55:14.775Z,86.76
2023-04-18T06:57:44.548Z,86.84
2023-04-18T07:00:14.474Z,86.51
2023-04-18T07:02:43.631Z,86.87
2023-04-18T07:05:13.925Z,86.33
2023-04-18T07:07:42.590Z,86.06
2023-04-18T07:10:12.360Z,86.03
2023-04-18T07:12:41.027Z,86.52
2023-04-18T07:15:11.784Z,86.75
2023-04-18T07:17:40.558Z,86.50
2023-04-18T07:20:12.979Z,86.50
2023-04-18T07:22:44.401Z,86.77
2023-04-18T07:25:13.256Z,87.43
2023-04-18T07:27:41.903Z,88.11
2023-04-18T07:30:12.063Z,87.42
2023-04-18T07:32:40.754Z,87.12
2023-04-18T07:35:10.411Z,87.26
2023-04-18T07:37:39.302Z,87.26
2023-04-18T07:40:11.617Z,86.26
2023-04-18T07:42:40.374Z,86.64
2023-04-18T07:45:09.833Z,86.65
2023-04-18T07:47:38.617Z,86.72
2023-04-18T07:50:10.321Z,86.81
2023-04-18T07:52:39.577Z,86.51
2023-04-18T07:55:11.003Z,86.38
2023-04-18T07:57:39.862Z,86.15
2023-04-18T08:00:10.634Z,87.03
2023-04-18T08:02:42.303Z,86.72
2023-04-18T08:05:12.090Z,86.02
2023-04-18T08:07:40.897Z,87.10
2023-04-18T08:10:11.916Z,87.15
2023-04-18T08:12:40.718Z,87.63
2023-04-18T08:15:11.057Z,88.06
2023-04-18T08:17:42.746Z,88.21
2023-04-18T08:20:13.070Z,87.25
2023-04-18T08:22:57.794Z,87.49
2023-04-18T08:25:33.233Z,88.49
2023-04-18T08:28:02.097Z,88.12
2023-04-18T08:30:31.404Z,87.95
2023-04-18T08:33:01.194Z,87.97
2023-04-18T08:35:30.004Z,87.69
2023-04-18T08:37:59.095Z,87.17
2023-04-18T08:40:27.767Z,87.72
2023-04-18T08:43:01.276Z,87.58
2023-04-18T08:45:31.344Z,87.18
2023-04-18T08:48:01.639Z,87.72
2023-04-18T08:50:30.447Z,88.34
2023-04-18T08:53:02.097Z,88.46
2023-04-18T08:55:30.881Z,87.57
2023-04-18T08:58:01.485Z,87.74
2023-04-18T09:00:30.673Z,87.27
2023-04-18T09:02:59.837Z,87.62
2023-04-18T09:05:29.782Z,87.19
2023-04-18T09:07:58.558Z,86.66
2023-04-18T09:10:29.893Z,87.74
2023-04-18T09:13:03.410Z,88.36
2023-04-18T09:15:32.678Z,87.90
2023-04-18T09:18:03.542Z,87.43
2023-04-18T09:20:37.741Z,88.13
2023-04-18T09:23:11.229Z,87.75
2023-04-18T09:25:46.747Z,87.70
2023-04-18T09:28:28.218Z,86.98
2023-04-18T09:30:58.681Z,86.12
2023-04-18T09:33:29.441Z,85.68
2023-04-18T09:36:16.709Z,86.26
2023-04-18T09:38:45.897Z,86.53
2023-04-18T09:41:19.938Z,85.96
2023-04-18T09:43:52.273Z,86.02
2023-04-18T09:46:22.644Z,85.19
2023-04-18T09:48:51.554Z,85.04
2023-04-18T09:51:20.945Z,85.91
2023-04-18T09:53:51.092Z,86.48
2023-04-18T09:56:26.788Z,87.87
2023-04-18T09:59:08.501Z,87.23
2023-04-18T10:01:37.805Z,86.99
2023-04-18T10:04:08.066Z,87.11
2023-04-18T10:06:39.942Z,89.09
2023-04-18T10:09:10.979Z,89.03
2023-04-18T10:11:40.469Z,89.18
2023-04-18T10:14:14.956Z,89.83
2023-04-18T10:16:47.485Z,90.91
2023-04-18T10:19:25.335Z,90.92
2023-04-18T10:21:56.096Z,90.55
2023-04-18T10:24:57.167Z,90.27
2023-04-18T10:27:59.979Z,90.42
2023-04-18T10:31:03.877Z,90.73
2023-04-18T10:33:35.357Z,90.36
2023-04-18T10:36:20.551Z,89.81
2023-04-18T10:38:53.081Z,89.87
2023-04-18T10:41:27.646Z,89.88
2023-04-18T10:44:20.676Z,89.72
2023-04-18T10:47:34.065Z,90.12
2023-04-18T10:50:06.895Z,91.71
2023-04-18T10:52:36.499Z,92.02
2023-04-18T10:55:17.613Z,91.31
2023-04-18T10:57:48.424Z,92.38
2023-04-18T11:00:21.729Z,91.67
2023-04-18T11:02:57.893Z,92.15
2023-04-18T11:05:30.174Z,91.68
2023-04-18T11:07:58.895Z,91.47
2023-04-18T11:10:29.546Z,91.21
2023-04-18T11:13:04.568Z,91.48
2023-04-18T11:15:33.425Z,92.29
2023-04-18T11:18:05.459Z,92.61
2023-04-18T11:20:47.095Z,92.46
2023-04-18T11:23:22.976Z,91.90
2023-04-18T11:25:54.594Z,92.24
2023-04-18T11:28:25.147Z,92.23
2023-04-18T11:30:58.425Z,91.65
2023-04-18T11:33:30.376Z,91.42
2023-04-18T11:36:00.630Z,92.19
2023-04-18T11:38:31.331Z,91.78
2023-04-18T11:41:00.432Z,90.67
2023-04-18T11:43:29.132Z,90.59
2023-04-18T11:45:59.612Z,90.89
2023-04-18T11:48:36.544Z,90.79
2023-04-18T11:51:07.493Z,90.87
2023-04-18T11:53:38.943Z,90.59
2023-04-18T11:56:08.785Z,91.29
2023-04-18T11:58:38.281Z,91.03
2023-04-18T12:01:21.810Z,90.52
2023-04-18T12:04:07.412Z,90.30
2023-04-18T12:06:52.963Z,90.51
2023-04-18T12:09:24.593Z,90.38
2023-04-18T12:12:02.184Z,90.20
2023-04-18T12:14:32.433Z,91.05
2023-04-18T12:17:06.579Z,91.51
2023-04-18T12:19:35.577Z,91.19
2023-04-18T12:22:06.813Z,91.19
2023-04-18T12:24:38.050Z,91.10
2023-04-18T12:27:09.812Z,90.97
2023-04-18T12:29:40.138Z,90.92
2023-04-18T12:32:09.889Z,90.47
2023-04-18T12:34:39.573Z,90.57
2023-04-18T12:37:16.759Z,90.58
2023-04-18T12:39:47.934Z,90.55
2023-04-18T12:42:17.840Z,90.92
2023-04-18T12:44:47.993Z,90.80
2023-04-18T12:47:18.868Z,91.63
2023-04-18T12:49:49.250Z,91.56
2023-04-18T12:52:22.446Z,91.12
2023-04-18T12:54:53.317Z,91.17
2023-04-18T12:57:24.405Z,90.85
2023-04-18T12:59:55.149Z,90.75
2023-04-18T13:02:25.408Z,91.03
2023-04-18T13:04:54.438Z,91.11
2023-04-18T13:07:27.587Z,91.26
2023-04-18T13:09:58.373Z,91.67
2023-04-18T13:12:29.952Z,91.24
2023-04-18T13:15:01.006Z,91.45
2023-04-18T13:17:30.941Z,90.95
2023-04-18T13:20:02.527Z,91.28
2023-04-18T13:22:34.602Z,91.15
2023-04-18T13:25:05.602Z,91.10
2023-04-18T13:27:38.099Z,90.66
2023-04-18T13:30:13.134Z,90.46
2023-04-18T13:32:47.845Z,91.28
2023-04-18T13:35:20.112Z,91.11
2023-04-18T13:37:51.729Z,91.08
2023-04-18T13:40:21.465Z,91.13
2023-04-18T13:42:52.051Z,90.70
2023-04-18T13:45:21.820Z,91.09
2023-04-18T13:47:53.038Z,91.40
2023-04-18T13:50:23.369Z,90.69
2023-04-18T13:52:56.921Z,90.61
2023-04-18T13:55:28.064Z,90.83
2023-04-18T13:57:59.466Z,91.04
2023-04-18T14:00:30.501Z,90.87
2023-04-18T14:03:00.707Z,90.78
2023-04-18T14:05:31.253Z,91.22
2023-04-18T14:08:04.339Z,90.98
2023-04-18T14:10:34.822Z,91.06
2023-04-18T14:13:03.917Z,91.08
2023-04-18T14:15:35.062Z,91.44
2023-04-18T14:18:04.029Z,91.44
2023-04-18T14:20:38.191Z,91.17
2023-04-18T14:23:08.707Z,91.43
2023-04-18T14:25:38.646Z,90.95
2023-04-18T14:28:10.881Z,91.00
2023-04-18T14:30:41.354Z,91.13
2023-04-18T14:33:10.826Z,91.21
2023-04-18T14:35:40.605Z,91.04
2023-04-18T14:38:11.381Z,91.04
2023-04-18T14:40:43.264Z,90.96
2023-04-18T14:43:25.068Z,91.47
2023-04-18T14:45:54.068Z,92.24
2023-04-18T14:48:22.879Z,91.75
2023-04-18T14:50:58.422Z,91.99
2023-04-18T14:53:28.879Z,91.78
2023-04-18T14:55:57.732Z,91.83
2023-04-18T14:58:26.868Z,91.64
2023-04-18T15:00:55.912Z,91.37
2023-04-18T15:03:25.369Z,91.04
2023-04-18T15:05:54.780Z,91.40
2023-04-18T15:08:23.428Z,91.62
2023-04-18T15:10:53.572Z,91.25
2023-04-18T15:13:22.528Z,91.12
2023-04-18T15:15:55.943Z,91.27
2023-04-18T15:18:26.109Z,92.14
2023-04-18T15:20:57.259Z,92.85
2023-04-18T15:23:26.358Z,93.88
2023-04-18T15:25:59.977Z,94.40
2023-04-18T15:28:29.708Z,94.57
2023-04-18T15:30:58.649Z,95.21
2023-04-18T15:33:28.498Z,95.12
2023-04-18T15:35:57.349Z,95.10
2023-04-18T15:38:26.416Z,96.09
2023-04-18T15:40:56.569Z,96.14
2023-04-18T15:43:25.868Z,97.22
2023-04-18T15:45:54.899Z,96.74
2023-04-18T15:48:23.759Z,96.62
2023-04-18T15:50:53.253Z,96.75
2023-04-18T15:53:22.079Z,96.38
2023-04-18T15:55:51.515Z,96.65
2023-04-18T15:58:22.188Z,97.36
2023-04-18T16:00:51.981Z,97.53
2023-04-18T16:03:21.500Z,98.08
2023-04-18T16:05:50.794Z,100.00
2023-04-18T16:08:20.746Z,100.00
2023-04-18T16:10:50.033Z,100.00
2023-04-18T16:13:20.444Z,100.00
2023-04-18T16:15:49.498Z,100.00
2023-04-18T16:18:18.369Z,100.00
2023-04-18T16:20:47.469Z,100.00
2023-04-18T16:23:17.073Z,100.00
2023-04-18T16:25:46.279Z,100.00
2023-04-18T16:28:17.067Z,98.05
2023-04-18T16:30:48.024Z,98.93
2023-04-18T16:33:20.797Z,99.44
2023-04-18T16:35:49.917Z,99.07
2023-04-18T16:38:18.938Z,98.84
2023-04-18T16:40:48.206Z,98.42
2023-04-18T16:43:17.030Z,98.04
2023-04-18T16:45:47.662Z,97.90
2023-04-18T16:48:16.413Z,98.23
2023-04-18T16:50:46.774Z,97.63
2023-04-18T16:53:15.493Z,97.98
2023-04-18T16:55:46.225Z,97.22
2023-04-18T16:58:26.629Z,97.18
2023-04-18T17:01:12.041Z,97.33
2023-04-18T17:03:41.114Z,96.64
2023-04-18T17:06:09.952Z,96.71
2023-04-18T17:08:39.036Z,97.46
2023-04-18T17:11:09.236Z,97.05
2023-04-18T17:13:39.139Z,96.84
2023-04-18T17:16:09.650Z,97.29
2023-04-18T17:18:38.560Z,97.07
2023-04-18T17:21:07.873Z,96.83
2023-04-18T17:23:38.600Z,96.90
2023-04-18T17:26:07.540Z,96.74
2023-04-18T17:28:36.518Z,96.57
2023-04-18T17:31:06.759Z,96.90
2023-04-18T17:33:37.193Z,97.39
2023-04-18T17:36:07.797Z,97.69
2023-04-18T17:38:36.640Z,97.75
2023-04-18T17:41:06.739Z,97.71
2023-04-18T17:43:35.575Z,98.05
2023-04-18T17:46:04.339Z,97.74
2023-04-18T17:48:33.139Z,97.38
2023-04-18T17:51:03.429Z,97.28
2023-04-18T17:53:32.634Z,97.63
2023-04-18T17:56:03.897Z,97.37
2023-04-18T17:58:33.009Z,97.09
2023-04-18T18:01:02.029Z,96.89
2023-04-18T18:03:31.375Z,96.78
2023-04-18T18:06:00.434Z,97.15
2023-04-18T18:08:30.953Z,97.24
2023-04-18T18:11:01.337Z,97.34
2023-04-18T18:13:31.550Z,97.07
2023-04-18T18:16:00.439Z,96.62
2023-04-18T18:18:32.213Z,96.57
2023-04-18T18:21:03.413Z,96.75
2023-04-18T18:23:35.366Z,96.81
2023-04-18T18:26:06.605Z,96.37
2023-04-18T18:28:36.981Z,96.74
2023-04-18T18:31:06.292Z,96.75
2023-04-18T18:33:35.406Z,96.43
2023-04-18T18:36:04.316Z,96.75
2023-04-18T18:38:35.616Z,96.76
2023-04-18T18:41:04.784Z,96.79
2023-04-18T18:43:35.668Z,96.61
2023-04-18T18:46:04.562Z,96.84
2023-04-18T18:48:38.077Z,97.46
2023-04-18T18:51:06.822Z,97.38
2023-04-18T18:53:39.659Z,97.23
2023-04-18T18:56:10.300Z,97.52
2023-04-18T18:58:39.311Z,97.28
2023-04-18T19:01:08.400Z,96.90
2023-04-18T19:03:37.809Z,96.76
2023-04-18T19:06:08.760Z,96.17
2023-04-18T19:08:41.522Z,96.45
2023-04-18T19:11:12.924Z,96.24
2023-04-18T19:13:45.147Z,96.64
2023-04-18T19:16:14.351Z,96.05
2023-04-18T19:18:47.059Z,96.11
2023-04-18T19:21:16.875Z,96.30
2023-04-18T19:23:49.773Z,96.33
2023-04-18T19:26:20.011Z,96.27
2023-04-18T19:28:49.877Z,96.65
2023-04-18T19:31:18.891Z,96.24
2023-04-18T19:33:48.731Z,96.43
2023-04-18T19:36:17.509Z,96.75
2023-04-18T19:38:46.562Z,97.16
2023-04-18T19:41:17.289Z,97.11
2023-04-18T19:43:46.792Z,97.51
2023-04-18T19:46:15.538Z,97.51
2023-04-18T19:48:56.780Z,97.96
2023-04-18T19:51:28.809Z,97.21
2023-04-18T19:53:57.863Z,97.30
2023-04-18T19:56:28.740Z,97.06
2023-04-18T19:58:58.036Z,96.65
2023-04-18T20:01:27.109Z,97.17
2023-04-18T20:03:58.681Z,96.59
2023-04-18T20:06:27.877Z,96.61
2023-04-18T20:08:56.564Z,96.26
2023-04-18T20:11:27.619Z,96.32
2023-04-18T20:13:56.682Z,96.42
2023-04-18T20:16:25.439Z,96.75
2023-04-18T20:18:55.234Z,97.04
2023-04-18T20:21:23.870Z,97.43
2023-04-18T20:23:52.593Z,97.06
2023-04-18T20:26:21.253Z,96.86
2023-04-18T20:28:51.494Z,97.08
2023-04-18T20:31:20.295Z,96.77
2023-04-18T20:33:49.206Z,96.58
2023-04-18T20:36:18.635Z,96.77
2023-04-18T20:38:47.304Z,96.53
2023-04-18T20:41:18.342Z,96.79
2023-04-18T20:43:47.089Z,96.35
2023-04-18T20:46:17.324Z,97.12
2023-04-18T20:48:45.991Z,96.74
2023-04-18T20:51:14.720Z,96.87
2023-04-18T20:53:43.457Z,96.71
2023-04-18T20:56:12.104Z,96.47
2023-04-18T20:58:41.859Z,96.41
2023-04-18T21:01:10.590Z,96.52
2023-04-18T21:03:40.813Z,96.05
2023-04-18T21:06:09.545Z,96.03
2023-04-18T21:08:39.425Z,96.25
2023-04-18T21:11:08.560Z,96.42
2023-04-18T21:13:37.841Z,96.91
2023-04-18T21:16:10.324Z,96.67
2023-04-18T21:18:40.491Z,96.27
2023-04-18T21:21:09.226Z,96.35
2023-04-18T21:23:43.858Z,96.19
2023-04-18T21:26:14.153Z,96.95
2023-04-18T21:28:57.392Z,96.54
2023-04-18T21:31:27.142Z,96.79
2023-04-18T21:33:59.395Z,96.84
2023-04-18T21:36:30.677Z,96.83
2023-04-18T21:39:01.488Z,96.54
2023-04-18T21:41:30.260Z,96.35
2023-04-18T21:43:58.881Z,96.36
2023-04-18T21:46:27.622Z,96.66
2023-04-18T21:48:57.844Z,96.46
2023-04-18T21:51:27.244Z,96.28
2023-04-18T21:53:56.034Z,96.81
2023-04-18T21:56:24.744Z,96.50
2023-04-18T21:58:53.432Z,96.14
2023-04-18T22:01:22.351Z,96.41
2023-04-18T22:03:51.296Z,96.34
2023-04-18T22:06:23.211Z,96.24
2023-04-18T22:08:52.132Z,96.25
2023-04-18T22:11:23.652Z,96.06
2023-04-18T22:13:54.252Z,96.06
2023-04-18T22:16:24.620Z,95.87
2023-04-18T22:18:54.060Z,95.58
2023-04-18T22:21:24.231Z,96.12
2023-04-18T22:23:52.979Z,95.85
2023-04-18T22:26:21.816Z,96.28
2023-04-18T22:28:50.617Z,95.87
2023-04-18T22:31:19.355Z,96.50
2023-04-18T22:33:48.489Z,96.66
2023-04-18T22:36:17.100Z,97.17
2023-04-18T22:38:47.229Z,96.75
2023-04-18T22:41:15.911Z,96.69
2023-04-18T22:43:44.571Z,97.50
2023-04-18T22:46:13.321Z,97.55
2023-04-18T22:48:42.152Z,97.17
2023-04-18T22:51:11.036Z,97.13
2023-04-18T22:53:39.690Z,96.43
2023-04-18T22:56:10.172Z,96.41
2023-04-18T22:58:38.863Z,96.12
2023-04-18T23:01:07.679Z,95.97
2023-04-18T23:03:36.617Z,96.06
2023-04-18T23:06:07.499Z,96.02
2023-04-18T23:08:36.161Z,95.53
2023-04-18T23:11:04.800Z,95.68
2023-04-18T23:13:34.864Z,95.29
2023-04-18T23:16:03.599Z,95.11
2023-04-18T23:18:32.437Z,95.24
2023-04-18T23:21:02.023Z,95.26
2023-04-18T23:23:30.955Z,95.15
2023-04-18T23:26:00.274Z,95.20
2023-04-18T23:28:28.975Z,95.21
2023-04-18T23:30:59.208Z,95.42
2023-04-18T23:33:27.867Z,95.14
2023-04-18T23:35:56.534Z,95.54
2023-04-18T23:38:25.317Z,94.94
2023-04-18T23:40:54.119Z,94.83
2023-04-18T23:43:22.757Z,95.58
2023-04-18T23:45:51.439Z,96.15
2023-04-18T23:48:21.642Z,96.33
2023-04-18T23:50:52.705Z,96.22
2023-04-18T23:53:22.590Z,95.58
2023-04-18T23:55:51.571Z,95.54
2023-04-18T23:58:20.234Z,95.32
